KLM47K EHAM-EGCC
Flight info
| Callsign | KLM47K |
|---|---|
| Flight time | 0h 53m |
| Altitude | 34000 |
| Route | BERGI L60 OTBED |
| Aircraft | B738/M-SDE2E3FGHIRWXY/LB1 |
Departure
| Time | 2026-04-30 19:59 |
|---|---|
| Airport | Amsterdam Airport Schiphol (EHAM) |
Arrival
| Time | 2026-04-30 20:53 |
|---|---|
| Airport | Manchester Airport (EGCC) |
| Time | Latitude | Longitude | Altitude | Speed | Heading |
|---|---|---|---|---|---|
| 2026-04-30 19:26 | 52.30707 | 4.77089 | -2 ft | 0 kts | 2° |
| 2026-04-30 19:45 | 52.30705 | 4.77089 | -2 ft | 2 kts | 2° |
| 2026-04-30 19:46 | 52.30686 | 4.77083 | -2 ft | 3 kts | 20° |
| 2026-04-30 19:46 | 52.30670 | 4.77080 | -2 ft | 4 kts | 306° |
| 2026-04-30 19:46 | 52.30658 | 4.77110 | -2 ft | 2 kts | 303° |
| 2026-04-30 19:46 | 52.30657 | 4.77111 | -2 ft | 1 kts | 303° |
| 2026-04-30 19:51 | 52.30658 | 4.77110 | -2 ft | 1 kts | 303° |
| 2026-04-30 19:51 | 52.30653 | 4.77071 | -2 ft | 6 kts | 237° |
| 2026-04-30 19:52 | 52.30605 | 4.77042 | -2 ft | 9 kts | 174° |
| 2026-04-30 19:52 | 52.30529 | 4.77085 | -2 ft | 13 kts | 185° |
| 2026-04-30 19:52 | 52.30469 | 4.76977 | -2 ft | 14 kts | 237° |
| 2026-04-30 19:52 | 52.30414 | 4.76837 | -2 ft | 15 kts | 238° |
| 2026-04-30 19:53 | 52.30355 | 4.76678 | -2 ft | 17 kts | 239° |
| 2026-04-30 19:53 | 52.30288 | 4.76502 | -2 ft | 19 kts | 237° |
| 2026-04-30 19:53 | 52.30214 | 4.76309 | -2 ft | 21 kts | 238° |
| 2026-04-30 19:53 | 52.30133 | 4.76098 | -2 ft | 23 kts | 237° |
| 2026-04-30 19:54 | 52.30044 | 4.75872 | -2 ft | 24 kts | 238° |
| 2026-04-30 19:54 | 52.29960 | 4.75648 | -2 ft | 23 kts | 238° |
| 2026-04-30 19:54 | 52.29877 | 4.75433 | -2 ft | 22 kts | 237° |
| 2026-04-30 19:54 | 52.29841 | 4.75207 | -2 ft | 21 kts | 292° |
| 2026-04-30 19:55 | 52.29935 | 4.75021 | -2 ft | 22 kts | 311° |
| 2026-04-30 19:55 | 52.30052 | 4.74805 | -1 ft | 28 kts | 311° |
| 2026-04-30 19:55 | 52.30181 | 4.74569 | 9 ft | 27 kts | 312° |
| 2026-04-30 19:55 | 52.30302 | 4.74345 | 5 ft | 27 kts | 311° |
| 2026-04-30 19:56 | 52.30468 | 4.74199 | -2 ft | 28 kts | 2° |
| 2026-04-30 19:56 | 52.30658 | 4.74217 | -2 ft | 27 kts | 3° |
| 2026-04-30 19:56 | 52.30836 | 4.74236 | -2 ft | 25 kts | 2° |
| 2026-04-30 19:56 | 52.31003 | 4.74248 | -2 ft | 23 kts | 2° |
| 2026-04-30 19:57 | 52.31161 | 4.74262 | -2 ft | 22 kts | 4° |
| 2026-04-30 19:57 | 52.31314 | 4.74276 | -2 ft | 22 kts | 3° |
| 2026-04-30 19:57 | 52.31395 | 4.74433 | -2 ft | 21 kts | 87° |
| 2026-04-30 19:57 | 52.31416 | 4.74652 | -2 ft | 15 kts | 44° |
| 2026-04-30 19:58 | 52.31514 | 4.74672 | -2 ft | 14 kts | 1° |
| 2026-04-30 19:58 | 52.31611 | 4.74669 | -2 ft | 14 kts | 358° |
| 2026-04-30 19:58 | 52.31668 | 4.74758 | -2 ft | 13 kts | 86° |
| 2026-04-30 19:58 | 52.31679 | 4.75113 | -4 ft | 64 kts | 87° |
| 2026-04-30 19:59 | 52.31716 | 4.76219 | -1 ft | 128 kts | 86° |
| 2026-04-30 19:59 | 52.31783 | 4.77961 | 86 ft | 172 kts | 85° |
| 2026-04-30 19:59 | 52.32291 | 4.81593 | 2086 ft | 166 kts | 54° |
| 2026-04-30 20:00 | 52.33438 | 4.82562 | 2496 ft | 215 kts | 16° |
| 2026-04-30 20:00 | 52.35016 | 4.82308 | 2757 ft | 252 kts | 343° |
| 2026-04-30 20:00 | 52.36640 | 4.80943 | 3337 ft | 264 kts | 331° |
| 2026-04-30 20:00 | 52.38195 | 4.79458 | 4328 ft | 257 kts | 332° |
| 2026-04-30 20:01 | 52.41015 | 4.75404 | 5357 ft | 291 kts | 313° |
| 2026-04-30 20:01 | 52.42444 | 4.72981 | 6048 ft | 299 kts | 314° |
| 2026-04-30 20:01 | 52.43912 | 4.70551 | 6846 ft | 302 kts | 315° |
| 2026-04-30 20:02 | 52.46994 | 4.65855 | 8447 ft | 305 kts | 332° |
| 2026-04-30 20:02 | 52.48933 | 4.64465 | 9243 ft | 305 kts | 341° |
| 2026-04-30 20:03 | 52.52947 | 4.61963 | 10702 ft | 315 kts | 341° |
| 2026-04-30 20:03 | 52.55062 | 4.60630 | 10915 ft | 338 kts | 341° |
| 2026-04-30 20:03 | 52.57331 | 4.59181 | 11097 ft | 361 kts | 340° |
| 2026-04-30 20:03 | 52.59739 | 4.57624 | 11259 ft | 381 kts | 340° |
| 2026-04-30 20:04 | 52.62245 | 4.55992 | 11649 ft | 393 kts | 340° |
| 2026-04-30 20:04 | 52.64809 | 4.54318 | 12268 ft | 397 kts | 340° |
| 2026-04-30 20:04 | 52.67332 | 4.52422 | 12926 ft | 403 kts | 328° |
| 2026-04-30 20:05 | 52.71025 | 4.45404 | 14209 ft | 413 kts | 303° |
| 2026-04-30 20:05 | 52.72617 | 4.41438 | 14808 ft | 417 kts | 303° |
| 2026-04-30 20:05 | 52.75637 | 4.33217 | 16126 ft | 421 kts | 290° |
| 2026-04-30 20:06 | 52.76591 | 4.28636 | 16811 ft | 423 kts | 286° |
| 2026-04-30 20:06 | 52.77478 | 4.23983 | 17434 ft | 427 kts | 285° |
| 2026-04-30 20:06 | 52.78363 | 4.19281 | 18036 ft | 431 kts | 285° |
| 2026-04-30 20:06 | 52.79266 | 4.14550 | 18666 ft | 434 kts | 286° |
| 2026-04-30 20:07 | 52.80190 | 4.09794 | 19222 ft | 436 kts | 286° |
| 2026-04-30 20:07 | 52.81132 | 4.05016 | 19812 ft | 438 kts | 287° |
| 2026-04-30 20:07 | 52.83043 | 3.95416 | 20999 ft | 441 kts | 287° |
| 2026-04-30 20:08 | 52.84004 | 3.90590 | 21515 ft | 444 kts | 287° |
| 2026-04-30 20:08 | 52.84960 | 3.85782 | 21985 ft | 447 kts | 287° |
| 2026-04-30 20:08 | 52.85931 | 3.80878 | 22446 ft | 451 kts | 287° |
| 2026-04-30 20:08 | 52.86909 | 3.75929 | 22944 ft | 453 kts | 287° |
| 2026-04-30 20:09 | 52.87885 | 3.70980 | 23460 ft | 455 kts | 287° |
| 2026-04-30 20:09 | 52.88869 | 3.65972 | 23895 ft | 459 kts | 287° |
| 2026-04-30 20:09 | 52.90850 | 3.55848 | 24633 ft | 464 kts | 287° |
| 2026-04-30 20:10 | 52.92839 | 3.45632 | 25483 ft | 467 kts | 286° |
| 2026-04-30 20:10 | 52.93833 | 3.40500 | 25817 ft | 469 kts | 286° |
| 2026-04-30 20:10 | 52.94832 | 3.35333 | 26180 ft | 471 kts | 287° |
| 2026-04-30 20:11 | 52.96832 | 3.24953 | 26830 ft | 476 kts | 286° |
| 2026-04-30 20:11 | 52.97839 | 3.19705 | 27168 ft | 478 kts | 286° |
| 2026-04-30 20:11 | 52.98848 | 3.14421 | 27391 ft | 482 kts | 286° |
| 2026-04-30 20:12 | 53.00861 | 3.03809 | 28212 ft | 483 kts | 286° |
| 2026-04-30 20:12 | 53.01866 | 2.98484 | 28507 ft | 485 kts | 286° |
| 2026-04-30 20:12 | 53.02873 | 2.93141 | 28917 ft | 484 kts | 285° |
| 2026-04-30 20:13 | 53.03874 | 2.87815 | 29357 ft | 483 kts | 286° |
| 2026-04-30 20:13 | 53.04871 | 2.82500 | 29846 ft | 481 kts | 285° |
| 2026-04-30 20:13 | 53.05863 | 2.77193 | 30234 ft | 481 kts | 285° |
| 2026-04-30 20:13 | 53.06851 | 2.71891 | 30620 ft | 479 kts | 285° |
| 2026-04-30 20:14 | 53.07832 | 2.66608 | 31053 ft | 477 kts | 285° |
| 2026-04-30 20:14 | 53.08808 | 2.61347 | 31459 ft | 474 kts | 285° |
| 2026-04-30 20:14 | 53.09774 | 2.56123 | 31850 ft | 473 kts | 285° |
| 2026-04-30 20:14 | 53.10731 | 2.50880 | 32105 ft | 474 kts | 284° |
| 2026-04-30 20:15 | 53.11427 | 2.45520 | 32366 ft | 473 kts | 277° |
| 2026-04-30 20:15 | 53.11886 | 2.40103 | 32732 ft | 471 kts | 275° |
| 2026-04-30 20:15 | 53.12290 | 2.34703 | 33127 ft | 469 kts | 275° |
| 2026-04-30 20:15 | 53.12681 | 2.29313 | 33478 ft | 468 kts | 275° |
| 2026-04-30 20:16 | 53.13077 | 2.23929 | 33778 ft | 468 kts | 275° |
| 2026-04-30 20:16 | 53.13485 | 2.18546 | 34068 ft | 469 kts | 275° |
| 2026-04-30 20:16 | 53.13903 | 2.13169 | 34319 ft | 469 kts | 275° |
| 2026-04-30 20:17 | 53.14753 | 2.02394 | 34311 ft | 472 kts | 275° |
| 2026-04-30 20:17 | 53.15606 | 1.91602 | 34287 ft | 467 kts | 275° |
| 2026-04-30 20:18 | 53.16441 | 1.80890 | 34302 ft | 466 kts | 275° |
| 2026-04-30 20:18 | 53.17262 | 1.70198 | 34294 ft | 465 kts | 275° |
| 2026-04-30 20:19 | 53.18071 | 1.59513 | 34288 ft | 465 kts | 275° |
| 2026-04-30 20:19 | 53.18871 | 1.48828 | 34294 ft | 465 kts | 274° |
| 2026-04-30 20:20 | 53.19663 | 1.38117 | 34282 ft | 466 kts | 274° |
| 2026-04-30 20:20 | 53.20448 | 1.27374 | 34284 ft | 467 kts | 274° |
| 2026-04-30 20:21 | 53.21224 | 1.16611 | 34279 ft | 468 kts | 274° |
| 2026-04-30 20:21 | 53.21868 | 1.07578 | 34277 ft | 468 kts | 274° |
| 2026-04-30 20:22 | 53.22624 | 0.96846 | 34282 ft | 469 kts | 273° |
| 2026-04-30 20:22 | 53.23376 | 0.86021 | 34273 ft | 470 kts | 273° |
| 2026-04-30 20:23 | 53.24119 | 0.75181 | 34276 ft | 470 kts | 273° |
| 2026-04-30 20:23 | 53.24852 | 0.64349 | 34271 ft | 470 kts | 273° |
| 2026-04-30 20:24 | 53.25575 | 0.53510 | 34272 ft | 469 kts | 273° |
| 2026-04-30 20:24 | 53.26288 | 0.42679 | 34010 ft | 472 kts | 272° |
| 2026-04-30 20:24 | 53.26642 | 0.37213 | 33319 ft | 472 kts | 272° |
| 2026-04-30 20:25 | 53.27342 | 0.26359 | 31877 ft | 469 kts | 272° |
| 2026-04-30 20:25 | 53.27687 | 0.20946 | 31110 ft | 470 kts | 272° |
| 2026-04-30 20:26 | 53.28373 | 0.10074 | 29401 ft | 471 kts | 272° |
| 2026-04-30 20:26 | 53.29634 | -0.00299 | 28797 ft | 455 kts | 293° |
| 2026-04-30 20:26 | 53.31075 | -0.05002 | 28354 ft | 461 kts | 294° |
| 2026-04-30 20:27 | 53.34044 | -0.14815 | 27255 ft | 478 kts | 294° |
| 2026-04-30 20:27 | 53.36957 | -0.24703 | 26180 ft | 469 kts | 293° |
| 2026-04-30 20:28 | 53.39763 | -0.34379 | 25168 ft | 461 kts | 293° |
| 2026-04-30 20:28 | 53.42533 | -0.43993 | 24164 ft | 455 kts | 293° |
| 2026-04-30 20:29 | 53.45263 | -0.53500 | 23086 ft | 450 kts | 293° |
| 2026-04-30 20:30 | 53.49273 | -0.67524 | 21562 ft | 438 kts | 293° |
| 2026-04-30 20:30 | 53.53167 | -0.81223 | 20130 ft | 429 kts | 293° |
| 2026-04-30 20:31 | 53.56971 | -0.94683 | 18725 ft | 421 kts | 293° |
| 2026-04-30 20:32 | 53.60683 | -1.07918 | 17235 ft | 411 kts | 291° |
| 2026-04-30 20:32 | 53.62222 | -1.17234 | 16768 ft | 421 kts | 279° |
| 2026-04-30 20:33 | 53.62825 | -1.22076 | 16520 ft | 423 kts | 279° |
| 2026-04-30 20:33 | 53.64037 | -1.31707 | 16027 ft | 418 kts | 279° |
| 2026-04-30 20:33 | 53.64660 | -1.36488 | 15783 ft | 417 kts | 279° |
| 2026-04-30 20:34 | 53.65927 | -1.46003 | 15298 ft | 415 kts | 279° |
| 2026-04-30 20:34 | 53.67196 | -1.55479 | 14825 ft | 414 kts | 279° |
| 2026-04-30 20:35 | 53.67828 | -1.60216 | 14596 ft | 414 kts | 279° |
| 2026-04-30 20:35 | 53.68457 | -1.64952 | 14353 ft | 413 kts | 279° |
| 2026-04-30 20:35 | 53.69706 | -1.74397 | 13845 ft | 411 kts | 279° |
| 2026-04-30 20:36 | 53.70324 | -1.79099 | 13590 ft | 409 kts | 279° |
| 2026-04-30 20:36 | 53.70936 | -1.83767 | 13335 ft | 403 kts | 279° |
| 2026-04-30 20:36 | 53.72104 | -1.92701 | 12857 ft | 377 kts | 279° |
| 2026-04-30 20:37 | 53.72659 | -1.96965 | 12636 ft | 365 kts | 278° |
| 2026-04-30 20:37 | 53.73192 | -2.01083 | 12423 ft | 354 kts | 278° |
| 2026-04-30 20:37 | 53.73710 | -2.05092 | 12235 ft | 344 kts | 278° |
| 2026-04-30 20:37 | 53.74211 | -2.08992 | 12053 ft | 335 kts | 277° |
| 2026-04-30 20:38 | 53.74413 | -2.12814 | 11845 ft | 321 kts | 263° |
| 2026-04-30 20:38 | 53.74260 | -2.16506 | 11675 ft | 311 kts | 261° |
| 2026-04-30 20:38 | 53.74082 | -2.20069 | 11480 ft | 304 kts | 261° |
| 2026-04-30 20:39 | 53.73351 | -2.26863 | 11201 ft | 279 kts | 233° |
| 2026-04-30 20:39 | 53.72013 | -2.29059 | 10942 ft | 266 kts | 210° |
| 2026-04-30 20:39 | 53.70523 | -2.30847 | 10649 ft | 267 kts | 214° |
| 2026-04-30 20:40 | 53.67592 | -2.34708 | 10063 ft | 267 kts | 215° |
| 2026-04-30 20:40 | 53.66199 | -2.36769 | 9749 ft | 268 kts | 223° |
| 2026-04-30 20:40 | 53.64935 | -2.39073 | 9447 ft | 268 kts | 224° |
| 2026-04-30 20:41 | 53.62471 | -2.43732 | 8899 ft | 265 kts | 225° |
| 2026-04-30 20:41 | 53.61252 | -2.46054 | 8579 ft | 265 kts | 225° |
| 2026-04-30 20:41 | 53.60037 | -2.48372 | 8327 ft | 263 kts | 225° |
| 2026-04-30 20:41 | 53.58832 | -2.50677 | 8029 ft | 262 kts | 225° |
| 2026-04-30 20:42 | 53.57628 | -2.52975 | 7746 ft | 261 kts | 225° |
| 2026-04-30 20:42 | 53.56430 | -2.55260 | 7480 ft | 260 kts | 225° |
| 2026-04-30 20:42 | 53.54040 | -2.59813 | 6942 ft | 259 kts | 225° |
| 2026-04-30 20:43 | 53.52847 | -2.62073 | 6666 ft | 258 kts | 225° |
| 2026-04-30 20:43 | 53.51654 | -2.64326 | 6373 ft | 257 kts | 225° |
| 2026-04-30 20:43 | 53.50471 | -2.66554 | 6159 ft | 253 kts | 225° |
| 2026-04-30 20:44 | 53.48125 | -2.70955 | 5763 ft | 252 kts | 225° |
| 2026-04-30 20:44 | 53.46953 | -2.73142 | 5561 ft | 252 kts | 225° |
| 2026-04-30 20:44 | 53.44621 | -2.77480 | 5159 ft | 248 kts | 224° |
| 2026-04-30 20:45 | 53.41632 | -2.79516 | 4729 ft | 239 kts | 170° |
| 2026-04-30 20:45 | 53.40105 | -2.78474 | 4561 ft | 238 kts | 152° |
| 2026-04-30 20:45 | 53.38678 | -2.77053 | 4357 ft | 239 kts | 150° |
| 2026-04-30 20:46 | 53.34456 | -2.72690 | 3855 ft | 234 kts | 150° |
| 2026-04-30 20:46 | 53.33081 | -2.71267 | 3726 ft | 230 kts | 149° |
| 2026-04-30 20:47 | 53.30368 | -2.68482 | 3481 ft | 228 kts | 150° |
| 2026-04-30 20:47 | 53.29018 | -2.67104 | 3355 ft | 227 kts | 149° |
| 2026-04-30 20:48 | 53.27065 | -2.63162 | 3126 ft | 234 kts | 115° |
| 2026-04-30 20:48 | 53.26399 | -2.60680 | 3038 ft | 232 kts | 119° |
| 2026-04-30 20:48 | 53.25702 | -2.58322 | 3006 ft | 220 kts | 121° |
| 2026-04-30 20:48 | 53.25022 | -2.56098 | 2997 ft | 211 kts | 121° |
| 2026-04-30 20:49 | 53.24358 | -2.53956 | 3001 ft | 204 kts | 121° |
| 2026-04-30 20:49 | 53.24003 | -2.51699 | 3002 ft | 206 kts | 88° |
| 2026-04-30 20:49 | 53.24653 | -2.49510 | 3045 ft | 222 kts | 53° |
| 2026-04-30 20:50 | 53.26589 | -2.45680 | 2793 ft | 208 kts | 59° |
| 2026-04-30 20:50 | 53.27479 | -2.43811 | 2523 ft | 203 kts | 58° |
| 2026-04-30 20:50 | 53.28354 | -2.41998 | 2260 ft | 198 kts | 58° |
| 2026-04-30 20:50 | 53.29206 | -2.40235 | 1989 ft | 191 kts | 59° |
| 2026-04-30 20:51 | 53.30019 | -2.38557 | 1735 ft | 179 kts | 60° |
| 2026-04-30 20:51 | 53.31465 | -2.35567 | 1320 ft | 150 kts | 60° |
| 2026-04-30 20:51 | 53.32107 | -2.34235 | 1092 ft | 146 kts | 57° |
| 2026-04-30 20:52 | 53.32750 | -2.32906 | 906 ft | 147 kts | 55° |
| 2026-04-30 20:52 | 53.33392 | -2.31583 | 677 ft | 146 kts | 53° |
| 2026-04-30 20:52 | 53.34643 | -2.29002 | 306 ft | 140 kts | 48° |
| 2026-04-30 20:53 | 53.35245 | -2.27775 | 237 ft | 122 kts | 49° |
| 2026-04-30 20:53 | 53.35637 | -2.26955 | 259 ft | 59 kts | 51° |
| 2026-04-30 20:53 | 53.35758 | -2.26704 | 268 ft | 0 kts | 50° |
| 2026-04-30 20:54 | 53.35880 | -2.26696 | 261 ft | 18 kts | 351° |
| 2026-04-30 20:54 | 53.35916 | -2.26792 | 255 ft | 9 kts | 246° |
| 2026-04-30 20:54 | 53.35883 | -2.26875 | 255 ft | 9 kts | 231° |
| 2026-04-30 20:55 | 53.35813 | -2.27050 | 254 ft | 10 kts | 241° |
| 2026-04-30 20:55 | 53.35773 | -2.27139 | 254 ft | 9 kts | 232° |
| 2026-04-30 20:55 | 53.35734 | -2.27223 | 254 ft | 9 kts | 232° |
| 2026-04-30 20:56 | 53.35644 | -2.27413 | 247 ft | 18 kts | 231° |
| 2026-04-30 20:56 | 53.35662 | -2.27581 | 245 ft | 17 kts | 320° |
| 2026-04-30 20:56 | 53.35847 | -2.27798 | 252 ft | 16 kts | 311° |
| 2026-04-30 20:57 | 53.35947 | -2.27857 | 254 ft | 15 kts | 343° |
| 2026-04-30 20:57 | 53.36031 | -2.27959 | 254 ft | 15 kts | 318° |
| 2026-04-30 20:57 | 53.36107 | -2.28070 | 254 ft | 14 kts | 319° |
| 2026-04-30 20:58 | 53.36239 | -2.28294 | 254 ft | 13 kts | 315° |
| 2026-04-30 20:58 | 53.36304 | -2.28402 | 254 ft | 14 kts | 316° |
| 2026-04-30 20:58 | 53.36387 | -2.28479 | 254 ft | 14 kts | 343° |
| 2026-04-30 20:58 | 53.36466 | -2.28566 | 254 ft | 13 kts | 315° |
| 2026-04-30 20:59 | 53.36595 | -2.28774 | 254 ft | 13 kts | 332° |
| 2026-04-30 20:59 | 53.36679 | -2.28746 | 254 ft | 13 kts | 37° |
| 2026-04-30 21:00 | 53.36749 | -2.28637 | 254 ft | 0 kts | 37° |
| 2026-04-30 21:00 | 53.36755 | -2.28636 | 254 ft | 1 kts | 5° |
| 2026-04-30 21:01 | 53.36781 | -2.28662 | 254 ft | 3 kts | 314° |
| 2026-04-30 21:01 | 53.36792 | -2.28681 | 254 ft | 0 kts | 314° |